Time;durP1;ratioP1;P1;durP2;ratioP2;P2;SDS_P1;SDS_P2;PMS_P1;PMS_P2;Temp;Humidity;BMP_temperature;BMP_pressure;BME280_temperature;BME280_humidity;BME280_pressure;Samples;Min_cycle;Max_cycle;Signal;HPM_P1;HPM_P2
2021/09/11 00:01:43;;;;;;;11.27;5.80;;;;;;;17.19;48.28;95389.56;5036021;28;20447;-67
2021/09/11 00:04:11;;;;;;;7.83;5.60;;;;;;;17.23;47.74;95387.91;5051426;28;20454;-71
2021/09/11 00:06:37;;;;;;;10.07;6.17;;;;;;;17.18;47.69;95390.63;5055421;28;20464;-68
2021/09/11 00:09:04;;;;;;;9.73;6.00;;;;;;;17.04;48.11;95390.53;5055753;28;20450;-70
2021/09/11 00:11:32;;;;;;;8.37;5.40;;;;;;;16.95;49.01;95378.22;5049997;28;20454;-69
2021/09/11 00:13:59;;;;;;;11.60;5.80;;;;;;;16.89;49.41;95385.44;5047776;28;20446;-72
2021/09/11 00:16:25;;;;;;;8.93;5.60;;;;;;;16.84;48.58;95379.41;5050923;28;20470;-73
2021/09/11 00:18:52;;;;;;;16.10;5.57;;;;;;;16.63;49.56;95381.47;5041905;28;20467;-70
2021/09/11 00:21:19;;;;;;;7.03;5.47;;;;;;;16.56;49.93;95386.31;5052217;28;20525;-72
2021/09/11 00:23:46;;;;;;;12.17;5.53;;;;;;;16.54;50.06;95377.88;5046832;28;20444;-72
2021/09/11 00:26:13;;;;;;;12.50;5.63;;;;;;;16.49;50.61;95385.88;5045023;28;20439;-69
2021/09/11 00:28:40;;;;;;;9.47;5.43;;;;;;;16.54;50.01;95388.47;5052209;28;20823;-69
2021/09/11 00:31:08;;;;;;;10.97;5.53;;;;;;;16.54;50.69;95392.94;5062108;28;20446;-69
2021/09/11 00:33:36;;;;;;;10.43;5.57;;;;;;;16.47;49.93;95397.75;5038461;28;20443;-70
2021/09/11 00:36:03;;;;;;;7.13;5.40;;;;;;;16.49;49.96;95395.66;5042872;28;20450;-72
2021/09/11 00:38:30;;;;;;;9.30;5.70;;;;;;;15.45;52.95;95402.25;5047639;28;20854;-71
2021/09/11 00:40:57;;;;;;;9.50;5.43;;;;;;;16.03;51.39;95403.16;5052402;28;20854;-68
2021/09/11 00:43:26;;;;;;;9.20;5.33;;;;;;;16.13;52.01;95387.22;5052248;28;20471;-65
2021/09/11 00:45:54;;;;;;;12.07;5.63;;;;;;;16.31;50.87;95399.78;5031931;28;20918;-68
2021/09/11 00:48:22;;;;;;;14.70;5.80;;;;;;;16.30;50.69;95398.19;5044960;28;20430;-68
2021/09/11 00:50:49;;;;;;;10.87;5.87;;;;;;;16.34;49.92;95398.41;5035950;28;20968;-70
2021/09/11 00:53:16;;;;;;;9.13;5.20;;;;;;;16.22;50.31;95390.88;5052357;28;20458;-69
2021/09/11 00:55:43;;;;;;;10.17;5.53;;;;;;;16.04;50.46;95392.31;5050065;28;20450;-71
2021/09/11 00:58:10;;;;;;;11.77;5.77;;;;;;;15.99;51.48;95392.38;5039922;28;20443;-71
2021/09/11 01:00:37;;;;;;;8.47;5.43;;;;;;;16.05;50.57;95395.75;5051347;28;20450;-71
2021/09/11 01:03:05;;;;;;;11.30;5.23;;;;;;;15.92;50.39;95396.38;5052239;28;20559;-73
2021/09/11 01:05:32;;;;;;;10.33;4.70;;;;;;;16.16;49.43;95391.97;5051793;28;20437;-69
2021/09/11 01:07:59;;;;;;;10.57;5.07;;;;;;;15.87;48.66;95393.78;5037790;28;20450;-72
2021/09/11 01:10:26;;;;;;;11.73;4.97;;;;;;;15.89;49.27;95391.66;5041149;28;20866;-71
2021/09/11 01:12:53;;;;;;;9.30;4.63;;;;;;;15.63;50.40;95391.06;5048370;28;20439;-72
2021/09/11 01:15:33;;;;;;;7.83;4.97;;;;;;;15.51;49.88;95384.53;5052156;28;20450;-69
2021/09/11 01:18:01;;;;;;;13.90;5.47;;;;;;;14.99;50.76;95392.94;5037416;28;20462;-69
2021/09/11 01:20:29;;;;;;;6.50;4.63;;;;;;;15.41;50.65;95395.13;5051731;28;20930;-67
2021/09/11 01:22:56;;;;;;;6.57;4.20;;;;;;;15.70;50.23;95393.38;5038458;28;20450;-69
2021/09/11 01:25:24;;;;;;;8.63;5.03;;;;;;;15.63;50.49;95390.25;5045418;28;20517;-68
2021/09/11 01:27:51;;;;;;;7.93;5.10;;;;;;;15.69;51.59;95403.13;5049962;28;20505;-68
2021/09/11 01:30:21;;;;;;;7.97;5.00;;;;;;;15.60;51.34;95398.72;5058682;28;20452;-66
2021/09/11 01:32:49;;;;;;;10.90;5.70;;;;;;;15.67;51.12;95397.38;5056680;28;20439;-70
2021/09/11 01:35:18;;;;;;;7.47;4.83;;;;;;;15.51;51.22;95400.38;5054900;28;21043;-69
2021/09/11 01:37:45;;;;;;;10.43;5.13;;;;;;;15.55;51.08;95390.81;5040624;28;20449;-69
2021/09/11 01:40:12;;;;;;;9.73;5.73;;;;;;;15.48;52.06;95400.91;5051524;28;20478;-66
2021/09/11 01:42:40;;;;;;;8.53;5.60;;;;;;;15.51;51.43;95410.94;5044162;28;20981;-68
2021/09/11 01:45:12;;;;;;;9.80;5.27;;;;;;;15.53;51.54;95392.97;5044819;28;20457;-70
2021/09/11 01:47:40;;;;;;;8.93;5.27;;;;;;;15.50;51.00;95404.06;5050950;28;20438;-69
2021/09/11 01:50:08;;;;;;;9.80;5.50;;;;;;;15.51;51.31;95395.09;5039737;28;20444;-70
2021/09/11 01:52:36;;;;;;;10.83;5.50;;;;;;;15.58;51.06;95408.78;5034232;28;20541;-66
2021/09/11 01:55:07;;;;;;;11.30;5.60;;;;;;;15.46;50.96;95406.47;5040912;28;20446;-70
2021/09/11 01:57:35;;;;;;;12.13;5.33;;;;;;;15.48;51.28;95406.19;5059064;28;20646;-69
2021/09/11 02:00:10;;;;;;;14.47;5.00;;;;;;;15.40;51.24;95398.81;5056945;28;20482;-67
2021/09/11 02:02:37;;;;;;;12.43;5.53;;;;;;;15.31;51.51;95400.47;5056398;28;20983;-67
2021/09/11 02:05:06;;;;;;;7.07;5.00;;;;;;;15.39;51.09;95400.66;5051164;28;20427;-70
2021/09/11 02:07:33;;;;;;;6.80;4.73;;;;;;;15.29;51.35;95402.56;5036405;28;20458;-69
2021/09/11 02:10:01;;;;;;;7.93;4.67;;;;;;;15.21;50.59;95398.66;5050615;28;20492;-71
2021/09/11 02:12:28;;;;;;;11.57;4.93;;;;;;;14.66;52.69;95399.66;5036889;28;20965;-72
2021/09/11 02:14:55;;;;;;;8.03;4.57;;;;;;;14.56;52.62;95399.66;5050196;28;20449;-72
2021/09/11 02:17:21;;;;;;;7.63;5.40;;;;;;;14.55;52.58;95392.81;5041014;28;20542;-70
2021/09/11 02:19:48;;;;;;;7.43;5.30;;;;;;;14.76;52.47;95389.06;5029918;28;20541;-69
2021/09/11 02:22:16;;;;;;;7.83;4.43;;;;;;;14.89;52.56;95383.22;5030521;28;20821;-68
2021/09/11 02:24:43;;;;;;;7.40;4.80;;;;;;;14.79;52.94;95387.75;5044255;28;20461;-69
2021/09/11 02:27:10;;;;;;;8.03;5.03;;;;;;;14.90;53.05;95390.09;5052555;28;20446;-70
2021/09/11 02:29:37;;;;;;;11.30;5.10;;;;;;;14.74;54.05;95390.41;5064696;28;20831;-69
2021/09/11 02:32:05;;;;;;;8.10;4.77;;;;;;;14.71;54.37;95383.81;5056194;28;20446;-68
2021/09/11 02:34:34;;;;;;;9.43;5.77;;;;;;;14.94;53.62;95387.69;5053567;28;20454;-66
2021/09/11 02:37:01;;;;;;;9.03;5.30;;;;;;;15.09;53.04;95388.41;5049939;28;20443;-71
2021/09/11 02:39:28;;;;;;;9.50;5.13;;;;;;;15.09;52.39;95388.41;5040866;28;20476;-70
2021/09/11 02:41:55;;;;;;;6.73;4.80;;;;;;;15.09;52.80;95388.41;5043934;28;21013;-68
2021/09/11 02:44:22;;;;;;;8.67;4.93;;;;;;;15.01;53.20;95391.63;5029890;28;20491;-67
2021/09/11 02:46:49;;;;;;;7.20;4.97;;;;;;;14.80;53.94;95365.56;5029422;28;20450;-70
2021/09/11 02:49:16;;;;;;;9.33;4.80;;;;;;;14.90;53.59;95384.81;5031799;28;20448;-70
2021/09/11 02:51:43;;;;;;;6.57;4.90;;;;;;;15.02;52.95;95392.38;5040689;28;20509;-69
2021/09/11 02:54:10;;;;;;;8.17;4.83;;;;;;;14.86;53.05;95389.03;5046998;28;20448;-68
2021/09/11 02:56:37;;;;;;;9.30;4.90;;;;;;;14.89;53.52;95388.50;5039273;28;20833;-70
2021/09/11 02:59:04;;;;;;;7.73;4.43;;;;;;;14.94;53.52;95385.81;5053174;28;20466;-69
2021/09/11 03:01:32;;;;;;;10.97;5.17;;;;;;;14.57;54.30;95387.28;5051285;28;20847;-68
2021/09/11 03:03:59;;;;;;;10.73;5.07;;;;;;;14.67;54.38;95385.38;5065551;28;20438;-68
2021/09/11 03:06:26;;;;;;;8.57;5.20;;;;;;;14.68;54.38;95381.72;5050464;28;20447;-73
2021/09/11 03:08:53;;;;;;;8.20;5.37;;;;;;;14.68;54.53;95396.75;5049859;28;20497;-67
2021/09/11 03:11:20;;;;;;;10.23;5.83;;;;;;;14.60;54.05;95395.44;5044918;28;20459;-70
2021/09/11 03:13:47;;;;;;;11.70;5.60;;;;;;;14.60;54.08;95392.81;5040589;28;20500;-68
2021/09/11 03:16:14;;;;;;;10.90;5.83;;;;;;;14.67;53.61;95397.81;5046583;28;20453;-69
2021/09/11 03:18:41;;;;;;;12.90;5.93;;;;;;;14.37;54.19;95397.88;5035963;28;20458;-67
2021/09/11 03:21:08;;;;;;;10.50;6.50;;;;;;;14.29;54.19;95401.81;5049039;28;20451;-65
2021/09/11 03:23:35;;;;;;;9.87;5.83;;;;;;;14.32;54.37;95414.50;5049620;28;20569;-69
2021/09/11 03:26:02;;;;;;;11.77;6.20;;;;;;;14.33;53.89;95402.88;5048917;28;20451;-71
2021/09/11 03:28:29;;;;;;;11.67;5.90;;;;;;;14.37;53.56;95401.28;5050926;28;20443;-67
2021/09/11 03:30:56;;;;;;;13.30;6.47;;;;;;;14.33;53.78;95405.50;5057255;28;20459;-68
2021/09/11 03:33:23;;;;;;;11.50;6.40;;;;;;;14.25;53.90;95409.44;5055570;28;20475;-70
2021/09/11 03:35:49;;;;;;;11.50;6.67;;;;;;;14.21;53.74;95412.88;5030513;28;20459;-68
2021/09/11 03:38:16;;;;;;;12.97;6.53;;;;;;;14.28;52.74;95410.81;5030134;28;21119;-70
2021/09/11 03:40:43;;;;;;;12.60;6.73;;;;;;;14.02;53.54;95420.53;5044672;28;20498;-70
2021/09/11 03:43:10;;;;;;;13.30;6.70;;;;;;;14.08;54.50;95423.97;5041610;28;20478;-70
2021/09/11 03:45:37;;;;;;;11.63;6.60;;;;;;;14.12;54.94;95409.22;5032070;28;20450;-67
2021/09/11 03:48:04;;;;;;;12.30;6.73;;;;;;;14.23;53.86;95416.06;5030493;28;20547;-71
2021/09/11 03:50:32;;;;;;;15.20;6.40;;;;;;;14.25;53.66;95413.91;5034266;28;20436;-70
2021/09/11 03:52:59;;;;;;;9.60;6.57;;;;;;;13.98;54.37;95414.19;5035254;28;20448;-70
2021/09/11 03:55:26;;;;;;;10.13;6.80;;;;;;;13.92;54.70;95409.22;5035639;28;21056;-71
2021/09/11 03:57:52;;;;;;;10.37;6.83;;;;;;;13.86;54.47;95410.25;5039354;28;20444;-70
2021/09/11 04:00:19;;;;;;;15.37;7.20;;;;;;;13.90;53.69;95406.03;5040059;28;20493;-71
2021/09/11 04:02:46;;;;;;;12.07;6.90;;;;;;;13.87;54.28;95407.34;5032431;28;20447;-71
2021/09/11 04:05:14;;;;;;;9.20;6.63;;;;;;;14.12;53.77;95403.94;5032489;28;20439;-71
2021/09/11 04:07:41;;;;;;;10.93;6.23;;;;;;;14.19;53.27;95407.09;5039988;28;20442;-66
2021/09/11 04:10:08;;;;;;;13.13;7.00;;;;;;;14.15;53.19;95411.31;5042675;28;20447;-64
2021/09/11 04:12:35;;;;;;;10.37;6.33;;;;;;;14.14;53.08;95421.03;5046579;28;20439;-67
2021/09/11 04:15:04;;;;;;;11.50;6.77;;;;;;;14.28;51.99;95423.97;5048090;28;20462;-65
2021/09/11 04:17:30;;;;;;;14.73;6.60;;;;;;;14.20;52.93;95416.56;5041326;28;20909;-66
2021/09/11 04:19:57;;;;;;;14.63;6.70;;;;;;;14.27;53.99;95419.75;5046183;28;20486;-67
2021/09/11 04:22:24;;;;;;;17.00;7.10;;;;;;;14.36;53.72;95418.16;5040644;28;20827;-67
2021/09/11 04:24:51;;;;;;;13.43;7.03;;;;;;;14.23;53.72;95416.06;5038431;28;20448;-64
2021/09/11 04:27:18;;;;;;;11.67;6.93;;;;;;;14.14;53.62;95425.56;5052401;28;20439;-67
2021/09/11 04:29:45;;;;;;;12.20;6.87;;;;;;;14.33;53.51;95421.34;5040058;28;20490;-65
2021/09/11 04:32:12;;;;;;;14.63;7.30;;;;;;;14.34;54.07;95416.84;5051407;28;20443;-65
2021/09/11 04:34:39;;;;;;;15.83;6.70;;;;;;;14.34;54.35;95420.28;5041093;28;20450;-65
2021/09/11 04:37:06;;;;;;;11.60;7.00;;;;;;;14.10;55.16;95419.22;5031578;28;20439;-64
2021/09/11 04:39:32;;;;;;;13.47;7.80;;;;;;;14.25;54.27;95421.81;5041791;28;20471;-64
2021/09/11 04:41:59;;;;;;;11.50;7.47;;;;;;;14.17;54.82;95417.91;5035205;28;20450;-65
2021/09/11 04:44:28;;;;;;;13.30;7.10;;;;;;;14.26;55.16;95412.88;5040361;28;20986;-65
2021/09/11 04:46:55;;;;;;;12.80;6.77;;;;;;;14.40;54.41;95421.06;5051050;28;20787;-65
2021/09/11 04:49:22;;;;;;;10.40;6.30;;;;;;;14.46;53.63;95420.78;5051737;28;20450;-66
2021/09/11 04:51:49;;;;;;;8.67;6.50;;;;;;;14.51;54.00;95417.34;5040054;28;20501;-64
2021/09/11 04:54:16;;;;;;;16.37;7.63;;;;;;;14.52;53.79;95429.47;5035639;28;20492;-64
2021/09/11 04:56:43;;;;;;;10.87;7.03;;;;;;;14.53;53.32;95429.22;5051222;28;20450;-67
2021/09/11 04:59:10;;;;;;;19.57;7.70;;;;;;;14.52;53.88;95425.00;5049871;28;20542;-64
2021/09/11 05:01:36;;;;;;;11.80;6.73;;;;;;;14.53;53.26;95431.06;5031501;28;20448;-62
2021/09/11 05:04:04;;;;;;;11.90;6.33;;;;;;;14.39;53.50;95425.56;5031397;28;20448;-63
2021/09/11 05:06:31;;;;;;;13.77;5.90;;;;;;;14.43;52.91;95429.25;5051336;28;20454;-65
2021/09/11 05:08:58;;;;;;;11.40;5.70;;;;;;;14.39;52.72;95433.47;5051438;28;20454;-63
2021/09/11 05:11:25;;;;;;;9.93;6.47;;;;;;;14.29;53.24;95420.28;5036400;28;20435;-67
2021/09/11 05:13:52;;;;;;;17.50;7.23;;;;;;;14.37;53.12;95421.59;5040609;28;20455;-65
2021/09/11 05:16:18;;;;;;;16.70;8.40;;;;;;;14.38;53.82;95423.97;5033130;28;20465;-66
2021/09/11 05:18:45;;;;;;;26.73;9.20;;;;;;;14.48;52.60;95423.97;5038318;28;20447;-64
2021/09/11 05:21:12;;;;;;;14.83;8.13;;;;;;;14.67;53.05;95424.97;5051246;28;20482;-65
2021/09/11 05:23:39;;;;;;;20.60;8.47;;;;;;;14.71;52.94;95422.56;5046175;28;20999;-64
2021/09/11 05:26:06;;;;;;;15.30;7.40;;;;;;;14.82;52.65;95417.00;5030591;28;20570;-66
2021/09/11 05:28:34;;;;;;;15.30;7.83;;;;;;;14.98;52.77;95418.53;5045833;28;20823;-64
2021/09/11 05:31:01;;;;;;;20.40;7.90;;;;;;;15.03;51.47;95410.63;5051072;28;20798;-70
2021/09/11 05:33:28;;;;;;;17.00;7.13;;;;;;;15.32;51.73;95423.94;5050826;28;20454;-64
2021/09/11 05:35:55;;;;;;;17.03;7.47;;;;;;;15.37;50.76;95420.47;5050033;28;20435;-65
2021/09/11 05:38:22;;;;;;;14.43;7.03;;;;;;;15.34;50.62;95421.81;5052105;28;20444;-64
2021/09/11 05:40:49;;;;;;;13.07;7.20;;;;;;;15.34;51.41;95426.31;5051219;28;20485;-64
2021/09/11 05:43:16;;;;;;;16.73;6.70;;;;;;;15.49;50.59;95419.13;5050170;28;20475;-67
2021/09/11 05:45:43;;;;;;;10.83;6.77;;;;;;;15.56;50.46;95416.97;5050035;28;20443;-72
2021/09/11 05:48:10;;;;;;;11.20;6.60;;;;;;;15.58;49.80;95420.16;5042777;28;20448;-72
2021/09/11 05:50:37;;;;;;;11.00;7.10;;;;;;;15.44;50.71;95421.03;5032777;28;20494;-67
2021/09/11 05:53:04;;;;;;;9.87;6.30;;;;;;;15.59;51.02;95415.63;5038438;28;20452;-73
2021/09/11 05:55:30;;;;;;;13.47;6.40;;;;;;;15.62;50.67;95396.63;5033938;28;20501;-69
2021/09/11 05:57:57;;;;;;;11.83;6.70;;;;;;;15.43;50.26;95409.66;5038267;28;20440;-69
2021/09/11 06:00:25;;;;;;;14.50;7.20;;;;;;;15.46;51.16;95413.59;5033720;28;20866;-70
2021/09/11 06:02:52;;;;;;;10.03;6.53;;;;;;;15.47;51.92;95388.78;5040445;28;20474;-71
2021/09/11 06:05:20;;;;;;;10.97;6.60;;;;;;;15.60;50.07;95406.66;5039975;28;20444;-67
2021/09/11 06:07:47;;;;;;;54.93;37.60;;;;;;;15.76;51.88;95408.13;5043904;28;20487;-74
2021/09/11 06:10:14;;;;;;;16.63;9.77;;;;;;;15.90;51.87;95403.78;5038472;28;20442;-72
2021/09/11 06:12:41;;;;;;;16.03;12.07;;;;;;;16.03;51.50;95408.47;5046298;28;20447;-76
2021/09/11 06:15:12;;;;;;;7.93;6.57;;;;;;;16.15;51.06;95412.31;5050480;28;20435;-70
2021/09/11 06:17:39;;;;;;;11.10;6.43;;;;;;;16.40;51.14;95408.69;5038910;28;20448;-70
2021/09/11 06:20:07;;;;;;;15.07;7.20;;;;;;;16.33;51.28;95410.84;5048773;28;20497;-74
2021/09/11 06:22:33;;;;;;;20.17;13.40;;;;;;;16.37;52.30;95414.50;5040523;28;20448;-72
2021/09/11 06:25:00;;;;;;;15.07;9.83;;;;;;;16.65;50.37;95413.75;5047101;28;20500;-72
2021/09/11 06:27:27;;;;;;;26.97;21.50;;;;;;;16.98;48.67;95407.56;5050277;28;20451;-74
2021/09/11 06:29:54;;;;;;;16.20;7.83;;;;;;;16.97;49.79;95402.56;5049965;28;20454;-71
2021/09/11 06:32:21;;;;;;;15.10;7.93;;;;;;;16.98;49.95;95404.91;5038573;28;20483;-68
2021/09/11 06:34:48;;;;;;;17.77;8.43;;;;;;;17.28;48.66;95406.38;5051297;28;20435;-68
2021/09/11 06:37:15;;;;;;;14.97;7.70;;;;;;;17.04;48.85;95403.78;5040955;28;20516;-75
2021/09/11 06:39:41;;;;;;;20.63;8.27;;;;;;;17.14;47.87;95403.66;5042658;28;20438;-67
2021/09/11 06:42:08;;;;;;;61.37;47.03;;;;;;;17.11;47.95;95398.16;5040992;28;20442;-74
2021/09/11 06:44:35;;;;;;;162.83;122.87;;;;;;;17.38;47.23;95403.63;5050146;28;20455;-72
2021/09/11 06:47:02;;;;;;;24.10;17.53;;;;;;;17.48;47.40;95402.75;5040757;28;20446;-71
2021/09/11 06:49:29;;;;;;;16.93;7.80;;;;;;;17.35;47.53;95406.06;5043925;28;20474;-71
2021/09/11 06:51:56;;;;;;;12.00;7.70;;;;;;;17.59;47.05;95404.94;5042449;28;20454;-71
2021/09/11 06:54:24;;;;;;;13.27;7.20;;;;;;;17.56;47.73;95404.72;5041799;28;21046;-67
2021/09/11 06:56:51;;;;;;;13.70;6.47;;;;;;;17.74;47.90;95396.78;5031828;28;20864;-70
2021/09/11 06:59:18;;;;;;;18.83;7.60;;;;;;;17.58;48.15;95397.28;5032600;28;21053;-69
2021/09/11 07:01:45;;;;;;;7.87;6.20;;;;;;;17.61;49.07;95402.78;5031339;28;21035;-69
2021/09/11 07:04:12;;;;;;;14.60;6.83;;;;;;;17.68;48.19;95391.84;5032887;28;20443;-75
2021/09/11 07:06:39;;;;;;;8.90;5.87;;;;;;;17.86;47.51;95391.81;5031670;28;20950;-68
2021/09/11 07:09:06;;;;;;;12.80;6.00;;;;;;;18.03;46.87;95388.66;5031503;28;20440;-70
2021/09/11 07:11:33;;;;;;;17.87;5.97;;;;;;;18.10;46.35;95389.09;5030357;28;20450;-71
2021/09/11 07:14:00;;;;;;;25.20;17.33;;;;;;;18.13;46.72;95388.50;5029970;28;20511;-69
2021/09/11 07:16:28;;;;;;;18.40;13.30;;;;;;;18.46;46.23;95371.50;5029489;28;20447;-73
2021/09/11 07:18:55;;;;;;;10.97;6.53;;;;;;;18.28;48.02;95379.50;5029858;28;20439;-63
2021/09/11 07:21:22;;;;;;;14.10;7.13;;;;;;;18.24;47.44;95379.28;5035600;28;20483;-64
2021/09/11 07:23:48;;;;;;;8.73;5.90;;;;;;;18.38;46.01;95377.44;5034670;28;20444;-73
2021/09/11 07:26:19;;;;;;;15.90;6.23;;;;;;;18.66;45.41;95378.31;5037365;28;20443;-68
2021/09/11 07:28:47;;;;;;;9.60;6.73;;;;;;;18.79;44.96;95370.38;5037066;28;20539;-72
2021/09/11 07:31:15;;;;;;;10.03;6.23;;;;;;;18.75;44.93;95374.69;5035262;28;20449;-67
2021/09/11 07:33:43;;;;;;;10.10;6.40;;;;;;;19.07;44.29;95371.91;5039260;28;20443;-70
2021/09/11 07:36:10;;;;;;;11.53;6.50;;;;;;;18.84;45.42;95362.28;5037928;28;20466;-64
2021/09/11 07:38:37;;;;;;;9.93;6.53;;;;;;;19.00;45.72;95371.53;5038964;28;20538;-65
2021/09/11 07:41:05;;;;;;;13.20;5.90;;;;;;;19.33;45.21;95374.06;5036169;28;22523;-66
2021/09/11 07:43:32;;;;;;;8.20;5.93;;;;;;;19.07;43.98;95376.44;5040056;28;20901;-67
2021/09/11 07:45:59;;;;;;;12.67;5.97;;;;;;;19.01;45.09;95367.78;5041929;28;20193;-70
2021/09/11 07:48:26;;;;;;;12.07;5.83;;;;;;;19.36;45.03;95362.88;5032948;28;20189;-68
2021/09/11 07:50:53;;;;;;;11.17;6.03;;;;;;;19.72;44.01;95361.00;5045063;28;20450;-71
2021/09/11 07:53:21;;;;;;;10.77;6.40;;;;;;;19.29;44.00;95362.47;5054068;28;20469;-72
2021/09/11 07:55:47;;;;;;;25.97;18.97;;;;;;;19.68;43.84;95360.00;5052257;28;20426;-73
2021/09/11 07:58:14;;;;;;;120.07;106.60;;;;;;;19.85;44.40;95354.84;5053466;28;20443;-71
2021/09/11 08:00:41;;;;;;;14.40;9.50;;;;;;;19.80;42.96;95352.28;5049238;28;20474;-73
2021/09/11 08:03:09;;;;;;;12.87;4.97;;;;;;;19.97;43.81;95357.72;5053420;28;20196;-70
2021/09/11 08:05:37;;;;;;;8.77;6.00;;;;;;;19.71;44.00;95322.19;5050666;28;20242;-74
2021/09/11 08:08:04;;;;;;;9.53;5.80;;;;;;;20.13;43.47;95341.09;5052444;28;20195;-73
2021/09/11 08:10:31;;;;;;;12.33;5.70;;;;;;;20.50;42.29;95349.78;5052687;28;20478;-73
2021/09/11 08:12:58;;;;;;;13.60;6.97;;;;;;;20.59;41.60;95347.94;5051001;28;20230;-70
2021/09/11 08:15:26;;;;;;;50.33;13.30;;;;;;;20.67;41.37;95340.00;5053313;28;20202;-71
2021/09/11 08:17:53;;;;;;;11.77;5.73;;;;;;;20.66;41.01;95332.28;5039208;28;20208;-71
2021/09/11 08:20:20;;;;;;;11.53;5.30;;;;;;;20.67;43.31;95328.56;5052299;28;20216;-68
2021/09/11 08:22:47;;;;;;;65.40;49.60;;;;;;;20.72;42.67;95337.19;5052671;28;20201;-72
2021/09/11 08:25:14;;;;;;;161.43;145.77;;;;;;;21.14;41.66;95323.25;5047836;28;20292;-70
2021/09/11 08:27:41;;;;;;;13.20;5.40;;;;;;;21.08;40.85;95323.69;5043168;28;20659;-68
2021/09/11 08:30:09;;;;;;;13.43;5.43;;;;;;;21.23;40.75;95319.78;5035890;28;20197;-70
2021/09/11 08:32:36;;;;;;;8.80;5.83;;;;;;;21.35;40.68;95315.41;5041096;28;20227;-63
2021/09/11 08:35:05;;;;;;;13.67;5.50;;;;;;;21.44;40.23;95310.88;5052034;28;20729;-66
2021/09/11 08:37:31;;;;;;;16.37;5.30;;;;;;;21.66;39.86;95302.72;5051206;28;20223;-68
2021/09/11 08:39:58;;;;;;;9.53;5.00;;;;;;;21.63;39.64;95318.56;5053126;28;20266;-70
2021/09/11 08:42:25;;;;;;;13.00;4.90;;;;;;;21.83;39.00;95310.75;5054192;28;20204;-69
2021/09/11 08:44:52;;;;;;;13.20;5.10;;;;;;;21.94;39.52;95304.00;5052320;28;20199;-72
2021/09/11 08:47:20;;;;;;;10.93;5.20;;;;;;;22.02;39.08;95305.84;5037736;28;20193;-70
2021/09/11 08:49:47;;;;;;;7.03;4.77;;;;;;;22.23;39.60;95300.63;5041642;28;20231;-70
2021/09/11 08:52:14;;;;;;;9.83;4.13;;;;;;;22.14;36.14;95297.19;5046541;28;20273;-71
2021/09/11 08:54:40;;;;;;;7.73;3.80;;;;;;;21.70;37.06;95301.00;5045545;28;20192;-73
2021/09/11 08:57:18;;;;;;;10.67;3.93;;;;;;;21.66;35.33;95280.63;5033742;28;20211;-71
2021/09/11 08:59:45;;;;;;;12.50;4.27;;;;;;;22.34;37.32;95295.72;5033130;28;20304;-70
2021/09/11 09:02:13;;;;;;;8.07;4.03;;;;;;;22.39;35.77;95290.97;5033909;28;20676;-71
2021/09/11 09:04:50;;;;;;;6.80;3.80;;;;;;;22.69;36.24;95287.28;5034043;28;20644;-71
2021/09/11 09:07:40;;;;;;;9.97;4.13;;;;;;;23.02;35.78;95285.53;5038855;28;20193;-72
2021/09/11 09:10:13;;;;;;;10.87;4.20;;;;;;;23.27;35.00;95283.00;5045887;28;20196;-69
2021/09/11 09:12:46;;;;;;;10.97;4.03;;;;;;;23.25;35.45;95288.69;5047100;28;20203;-67
2021/09/11 09:15:17;;;;;;;6.43;4.00;;;;;;;23.12;35.25;95285.16;5051998;28;20204;-66
2021/09/11 09:17:49;;;;;;;23.73;21.23;;;;;;;23.38;34.17;95278.88;5034375;28;20228;-73
2021/09/11 09:20:19;;;;;;;57.20;42.90;;;;;;;23.81;33.90;95279.31;5045183;28;20204;-73
2021/09/11 09:23:08;;;;;;;19.90;6.10;;;;;;;24.09;32.55;95281.09;5043252;28;20212;-74
2021/09/11 09:25:37;;;;;;;9.03;4.77;;;;;;;24.28;33.10;95271.75;5042038;28;20208;-70
2021/09/11 09:28:10;;;;;;;9.13;3.87;;;;;;;24.38;32.84;95266.75;5046348;28;20197;-72
2021/09/11 09:30:57;;;;;;;8.17;3.67;;;;;;;24.59;30.65;95267.47;5052531;28;20207;-69
2021/09/11 09:33:28;;;;;;;6.83;3.80;;;;;;;24.62;30.75;95264.09;5045220;28;20302;-69
2021/09/11 09:35:59;;;;;;;6.13;3.33;;;;;;;24.91;29.77;95263.91;5046371;28;20208;-69
2021/09/11 09:38:26;;;;;;;8.53;4.37;;;;;;;24.97;30.15;95254.50;5044856;28;20197;-69
2021/09/11 09:40:54;;;;;;;6.00;3.50;;;;;;;24.95;28.15;95253.28;5050323;28;20216;-70
2021/09/11 09:43:40;;;;;;;8.60;3.80;;;;;;;25.12;28.37;95253.03;5044569;28;20614;-68
2021/09/11 09:46:12;;;;;;;7.87;4.63;;;;;;;25.54;29.03;95248.16;5046691;28;20224;-69
2021/09/11 09:48:41;;;;;;;11.73;3.67;;;;;;;25.32;28.59;95251.31;5050452;28;20207;-68
2021/09/11 09:51:08;;;;;;;8.20;3.67;;;;;;;24.89;28.27;95247.38;5036200;28;20188;-68
2021/09/11 09:53:37;;;;;;;6.83;3.00;;;;;;;25.01;24.76;95244.69;5038997;28;20679;-67
2021/09/11 09:56:05;;;;;;;8.47;3.40;;;;;;;25.03;25.50;95239.78;5034627;28;20204;-68
2021/09/11 09:58:33;;;;;;;7.00;2.60;;;;;;;25.20;24.38;95241.38;5050813;28;20192;-69
2021/09/11 10:01:00;;;;;;;6.60;3.17;;;;;;;25.00;26.82;95235.06;5035917;28;20212;-68
2021/09/11 10:03:27;;;;;;;5.23;3.20;;;;;;;25.49;24.96;95235.75;5041628;28;20251;-67
2021/09/11 10:06:26;;;;;;;9.30;3.20;;;;;;;25.53;24.40;95225.13;5044707;28;20217;-70
2021/09/11 10:09:00;;;;;;;10.57;3.33;;;;;;;25.70;26.29;95224.81;5042518;28;20307;-67
2021/09/11 10:11:51;;;;;;;7.07;4.10;;;;;;;25.89;26.38;95227.66;5049547;28;20300;-69
2021/09/11 10:14:20;;;;;;;9.03;3.13;;;;;;;26.08;25.68;95225.09;5049792;28;20204;-67
2021/09/11 10:17:05;;;;;;;6.80;3.10;;;;;;;26.19;25.84;95231.53;5045288;28;20193;-68
2021/09/11 10:19:42;;;;;;;6.87;3.20;;;;;;;26.05;25.74;95217.75;5043724;28;20212;-67
2021/09/11 10:22:16;;;;;;;7.40;2.77;;;;;;;26.06;25.13;95221.22;5043265;28;20216;-67
2021/09/11 10:24:48;;;;;;;7.47;3.30;;;;;;;26.03;25.77;95222.63;5043853;28;20752;-68
2021/09/11 10:27:23;;;;;;;7.10;3.10;;;;;;;26.45;25.51;95221.06;5050025;28;20610;-68
2021/09/11 10:29:57;;;;;;;9.47;3.50;;;;;;;26.53;24.87;95219.31;5049972;28;20779;-69
2021/09/11 10:32:34;;;;;;;6.73;3.00;;;;;;;26.25;24.17;95214.03;5036742;28;20200;-67
2021/09/11 10:35:11;;;;;;;7.03;3.20;;;;;;;25.83;23.49;95218.28;5035913;28;20655;-69
2021/09/11 10:37:47;;;;;;;5.90;3.07;;;;;;;25.39;23.96;95211.31;5029826;28;20268;-67
2021/09/11 10:40:27;;;;;;;5.53;3.13;;;;;;;25.44;24.34;95213.72;5045370;28;20687;-69
2021/09/11 10:43:08;;;;;;;6.63;2.90;;;;;;;25.42;23.43;95207.97;5039673;28;20586;-67
2021/09/11 10:45:53;;;;;;;6.77;3.00;;;;;;;25.72;24.85;95215.31;5033301;28;20670;-69
2021/09/11 10:48:33;;;;;;;6.47;2.77;;;;;;;26.08;25.78;95206.28;5037662;28;20280;-69
2021/09/11 10:51:19;;;;;;;6.87;2.60;;;;;;;26.38;25.47;95196.69;5034058;28;20208;-67
2021/09/11 10:54:09;;;;;;;6.50;2.70;;;;;;;26.67;25.05;95190.84;5036825;28;20200;-68
2021/09/11 10:56:48;;;;;;;6.87;2.77;;;;;;;26.61;24.86;95183.41;5038501;28;20196;-68
2021/09/11 10:59:24;;;;;;;7.87;2.93;;;;;;;26.87;24.39;95187.13;5035503;28;20549;-68
2021/09/11 11:02:11;;;;;;;7.00;3.00;;;;;;;26.90;23.02;95178.34;5048612;28;20594;-68
2021/09/11 11:04:48;;;;;;;5.77;2.77;;;;;;;26.72;23.47;95166.41;5035445;28;20204;-68
2021/09/11 11:07:20;;;;;;;2.97;2.40;;;;;;;26.44;23.09;95163.03;5048862;28;20196;-68
2021/09/11 11:09:56;;;;;;;5.27;2.70;;;;;;;26.61;23.29;95162.69;5049569;28;20181;-70
2021/09/11 11:12:29;;;;;;;7.07;3.07;;;;;;;26.72;24.47;95162.94;5049341;28;20277;-68
2021/09/11 11:15:04;;;;;;;4.77;2.90;;;;;;;27.06;22.75;95161.38;5049577;28;20196;-68
2021/09/11 11:17:36;;;;;;;4.63;2.30;;;;;;;26.73;21.46;95149.13;5038416;28;20304;-67
2021/09/11 11:20:05;;;;;;;4.20;2.67;;;;;;;27.10;22.10;95152.22;5046417;28;20683;-68
2021/09/11 11:22:36;;;;;;;2.73;2.40;;;;;;;27.27;21.64;95140.28;5038721;28;20965;-68
2021/09/11 11:25:14;;;;;;;3.20;2.40;;;;;;;27.38;20.35;95142.06;5046039;28;20624;-69
2021/09/11 11:27:42;;;;;;;4.80;2.40;;;;;;;27.53;20.33;95137.75;5039802;28;20189;-68
2021/09/11 11:30:13;;;;;;;2.63;2.00;;;;;;;27.62;20.66;95130.22;5031698;28;20186;-68
2021/09/11 11:32:40;;;;;;;3.93;2.20;;;;;;;27.72;21.22;95129.63;5028961;28;20204;-69
2021/09/11 11:35:08;;;;;;;2.43;2.20;;;;;;;27.80;19.30;95131.31;5044939;28;20196;-70
2021/09/11 11:37:39;;;;;;;3.40;2.27;;;;;;;27.79;16.77;95125.13;5041258;28;20262;-69